createdAt,value
2023-11-23T00:01:13.450Z,18.30
2023-11-23T00:03:42.467Z,19.30
2023-11-23T00:06:10.931Z,17.70
2023-11-23T00:08:42.720Z,19.10
2023-11-23T00:13:39.632Z,18.70
2023-11-23T00:16:08.770Z,19.50
2023-11-23T00:18:37.443Z,23.00
2023-11-23T00:21:06.520Z,17.30
2023-11-23T00:23:34.925Z,19.50
2023-11-23T00:26:07.138Z,16.70
2023-11-23T00:28:36.275Z,20.10
2023-11-23T00:31:05.231Z,17.80
2023-11-23T00:33:33.951Z,17.30
2023-11-23T00:36:04.387Z,18.30
2023-11-23T00:38:32.826Z,18.50
2023-11-23T00:41:02.029Z,16.70
2023-11-23T00:43:30.355Z,20.40
2023-11-23T00:45:58.673Z,18.40
2023-11-23T00:48:29.110Z,19.10
2023-11-23T00:50:57.510Z,18.30
2023-11-23T00:53:25.869Z,17.20
2023-11-23T00:55:58.347Z,20.40
2023-11-23T00:58:26.881Z,19.10
2023-11-23T01:00:55.361Z,20.90
2023-11-23T01:03:26.132Z,18.30
2023-11-23T01:05:54.959Z,17.00
2023-11-23T01:08:23.321Z,18.90
2023-11-23T01:10:51.694Z,20.00
2023-11-23T01:13:20.274Z,19.20
2023-11-23T01:15:48.568Z,16.50
2023-11-23T01:18:17.286Z,17.80
2023-11-23T01:20:45.959Z,17.00
2023-11-23T01:23:14.302Z,17.70
2023-11-23T01:25:43.664Z,15.80
2023-11-23T01:28:12.088Z,15.90
2023-11-23T01:30:40.401Z,14.80
2023-11-23T01:33:09.106Z,20.20
2023-11-23T01:35:37.428Z,15.80
2023-11-23T01:38:05.917Z,17.70
2023-11-23T01:40:34.301Z,18.10
2023-11-23T01:43:11.406Z,16.50
2023-11-23T01:45:39.942Z,20.90
2023-11-23T01:48:09.367Z,17.10
2023-11-23T01:50:39.950Z,16.50
2023-11-23T01:53:10.119Z,17.30
2023-11-23T01:55:39.022Z,22.70
2023-11-23T01:58:09.783Z,21.10
2023-11-23T02:00:38.377Z,19.40
2023-11-23T02:03:06.907Z,20.10
2023-11-23T02:05:35.493Z,17.90
2023-11-23T02:08:06.456Z,19.90
2023-11-23T02:10:35.391Z,19.50
2023-11-23T02:13:05.549Z,21.40
2023-11-23T02:15:34.098Z,20.60
2023-11-23T02:18:09.957Z,23.70
2023-11-23T02:20:40.125Z,21.90
2023-11-23T02:23:08.518Z,20.80
2023-11-23T02:25:36.868Z,20.50
2023-11-23T02:28:07.706Z,20.70
2023-11-23T02:30:37.218Z,23.50
2023-11-23T02:33:09.908Z,23.60
2023-11-23T02:35:38.275Z,23.00
2023-11-23T02:38:06.555Z,23.10
2023-11-23T02:40:34.925Z,25.00
2023-11-23T02:43:08.115Z,25.20
2023-11-23T02:45:36.844Z,26.00
2023-11-23T02:48:06.395Z,23.50
2023-11-23T02:50:35.190Z,25.20
2023-11-23T02:53:04.944Z,26.00
2023-11-23T02:55:33.492Z,25.50
2023-11-23T02:58:02.235Z,25.20
2023-11-23T03:00:30.768Z,25.00
2023-11-23T03:02:59.506Z,25.10
2023-11-23T03:05:27.937Z,22.40
2023-11-23T03:07:56.520Z,25.30
2023-11-23T03:10:25.007Z,24.40
2023-11-23T03:12:53.492Z,27.80
2023-11-23T03:15:22.047Z,24.90
2023-11-23T03:17:50.551Z,27.40
2023-11-23T03:20:18.998Z,26.60
2023-11-23T03:22:47.414Z,28.10
2023-11-23T03:25:15.794Z,23.10
2023-11-23T03:27:44.103Z,27.50
2023-11-23T03:30:13.462Z,27.40
2023-11-23T03:32:41.914Z,29.20
2023-11-23T03:35:11.762Z,24.30
2023-11-23T03:37:40.267Z,25.90
2023-11-23T03:40:10.497Z,23.10
2023-11-23T03:42:38.861Z,28.50
2023-11-23T03:45:07.673Z,27.90
2023-11-23T03:47:36.055Z,25.30
2023-11-23T03:50:04.758Z,29.90
2023-11-23T03:52:33.111Z,26.20
2023-11-23T03:55:01.414Z,23.90
2023-11-23T03:57:29.943Z,26.00
2023-11-23T03:59:58.452Z,30.80
2023-11-23T04:02:26.901Z,31.90
2023-11-23T04:04:55.291Z,28.30
2023-11-23T04:07:23.663Z,26.20
2023-11-23T04:09:52.270Z,26.90
2023-11-23T04:12:20.664Z,27.20
2023-11-23T04:14:49.264Z,24.10
2023-11-23T04:17:18.026Z,29.60
2023-11-23T04:19:46.283Z,26.20
2023-11-23T04:22:14.661Z,24.40
2023-11-23T04:24:43.150Z,28.90
2023-11-23T04:27:12.786Z,26.70
2023-11-23T04:29:41.434Z,28.20
2023-11-23T04:32:12.287Z,22.50
2023-11-23T04:34:40.536Z,22.20
2023-11-23T04:37:08.933Z,24.90
2023-11-23T04:39:37.320Z,28.30
2023-11-23T04:42:06.252Z,29.20
2023-11-23T04:44:34.685Z,25.90
2023-11-23T04:47:03.022Z,24.20
2023-11-23T04:49:31.450Z,26.50
2023-11-23T04:51:59.778Z,25.60
2023-11-23T04:54:28.338Z,24.00
2023-11-23T04:56:56.822Z,25.70
2023-11-23T04:59:25.266Z,26.70
2023-11-23T05:01:53.707Z,25.30
2023-11-23T05:04:22.411Z,28.50
2023-11-23T05:06:51.120Z,26.70
2023-11-23T05:09:19.550Z,26.60
2023-11-23T05:11:48.643Z,26.80
2023-11-23T05:14:18.347Z,28.00
2023-11-23T05:16:47.686Z,23.50
2023-11-23T05:19:27.570Z,27.90
2023-11-23T05:22:04.435Z,26.20
2023-11-23T05:24:32.831Z,29.10
2023-11-23T05:27:01.208Z,25.40
2023-11-23T05:29:29.474Z,27.20
2023-11-23T05:31:58.068Z,27.40
2023-11-23T05:34:27.264Z,25.50
2023-11-23T05:36:56.122Z,25.00
2023-11-23T05:39:24.719Z,27.70
2023-11-23T05:41:53.211Z,27.40
2023-11-23T05:44:21.804Z,23.40
2023-11-23T05:46:51.250Z,26.80
2023-11-23T05:49:22.769Z,28.80
2023-11-23T05:51:51.244Z,27.10
2023-11-23T05:54:20.087Z,31.10
2023-11-23T05:56:49.664Z,26.40
2023-11-23T05:59:18.130Z,25.50
2023-11-23T06:01:47.139Z,28.20
2023-11-23T06:04:15.699Z,28.30
2023-11-23T06:06:44.385Z,24.70
2023-11-23T06:09:12.892Z,25.60
2023-11-23T06:11:41.668Z,25.40
2023-11-23T06:14:10.235Z,26.50
2023-11-23T06:16:38.621Z,26.40
2023-11-23T06:19:07.044Z,24.80
2023-11-23T06:21:35.279Z,41.10
2023-11-23T06:24:05.215Z,48.10
2023-11-23T06:26:33.571Z,33.00
2023-11-23T06:29:01.877Z,27.00
2023-11-23T06:31:30.643Z,25.70
2023-11-23T06:33:59.886Z,32.80
2023-11-23T06:36:28.689Z,25.70
2023-11-23T06:38:57.237Z,27.50
2023-11-23T06:41:25.686Z,25.90
2023-11-23T06:43:53.964Z,24.60
2023-11-23T06:46:22.423Z,26.40
2023-11-23T06:48:50.836Z,26.40
2023-11-23T06:51:19.303Z,26.40
2023-11-23T06:53:48.191Z,28.00
2023-11-23T06:56:18.149Z,24.40
2023-11-23T06:58:48.099Z,27.50
2023-11-23T07:01:17.322Z,30.70
2023-11-23T07:03:46.992Z,27.50
2023-11-23T07:06:15.686Z,21.30
2023-11-23T07:08:44.117Z,23.20
2023-11-23T07:11:19.803Z,25.00
2023-11-23T07:13:49.068Z,22.90
2023-11-23T07:16:17.587Z,25.00
2023-11-23T07:18:46.060Z,28.60
2023-11-23T07:21:15.793Z,39.40
2023-11-23T07:23:44.065Z,37.40
2023-11-23T07:26:13.120Z,26.10
2023-11-23T07:28:41.413Z,27.80
2023-11-23T07:31:11.098Z,28.20
2023-11-23T07:33:40.207Z,25.60
2023-11-23T07:36:09.408Z,26.90
2023-11-23T07:38:37.881Z,24.70
2023-11-23T07:41:07.898Z,24.40
2023-11-23T07:43:36.232Z,24.40
2023-11-23T07:46:04.805Z,38.80
2023-11-23T07:48:33.429Z,26.90
2023-11-23T07:51:02.688Z,39.40
2023-11-23T07:53:32.193Z,26.40
2023-11-23T07:56:00.728Z,23.40
2023-11-23T07:58:29.114Z,27.10
2023-11-23T08:00:58.469Z,26.00
2023-11-23T08:03:26.891Z,25.50
2023-11-23T08:05:56.694Z,24.70
2023-11-23T08:08:26.217Z,25.00
2023-11-23T08:10:54.591Z,26.20
2023-11-23T08:13:22.970Z,22.20
2023-11-23T08:15:51.345Z,24.70
2023-11-23T08:18:20.178Z,26.40
2023-11-23T08:20:48.625Z,23.50
2023-11-23T08:23:17.006Z,24.70
2023-11-23T08:25:45.386Z,22.10
2023-11-23T08:28:13.865Z,24.10
2023-11-23T08:30:42.332Z,27.40
2023-11-23T08:33:10.918Z,24.00
2023-11-23T08:35:39.412Z,25.00
2023-11-23T08:38:07.731Z,25.90
2023-11-23T08:40:57.799Z,27.90
2023-11-23T08:43:26.157Z,24.20
2023-11-23T08:45:54.548Z,27.60
2023-11-23T08:48:24.244Z,23.60
2023-11-23T08:50:52.651Z,27.60
2023-11-23T08:53:21.217Z,26.90
2023-11-23T08:55:51.447Z,24.40
2023-11-23T08:58:20.061Z,28.70
2023-11-23T09:00:48.622Z,24.50
2023-11-23T09:03:17.172Z,26.10
2023-11-23T09:05:46.279Z,25.30
2023-11-23T09:08:15.283Z,25.80
2023-11-23T09:10:45.210Z,24.40
2023-11-23T09:13:13.580Z,24.70
2023-11-23T09:15:42.815Z,24.40
2023-11-23T09:18:12.063Z,28.30
2023-11-23T09:20:40.460Z,24.90
2023-11-23T09:23:09.604Z,24.70
2023-11-23T09:25:38.144Z,24.80
2023-11-23T09:28:06.672Z,24.60
2023-11-23T09:30:35.340Z,23.70
2023-11-23T09:33:03.930Z,21.30
2023-11-23T09:35:32.787Z,23.50
2023-11-23T09:38:01.068Z,25.70
2023-11-23T09:40:31.088Z,25.50
2023-11-23T09:42:59.765Z,23.00
2023-11-23T09:45:29.795Z,25.50
2023-11-23T09:47:59.327Z,22.30
2023-11-23T09:50:34.795Z,24.00
2023-11-23T09:53:07.772Z,26.20
2023-11-23T09:55:36.097Z,25.20
2023-11-23T09:58:06.357Z,23.60
2023-11-23T10:00:38.431Z,22.90
2023-11-23T10:03:09.256Z,23.00
2023-11-23T10:05:40.026Z,27.90
2023-11-23T10:08:08.659Z,23.40
2023-11-23T10:10:39.605Z,22.70
2023-11-23T10:13:10.570Z,22.20
2023-11-23T10:15:39.311Z,26.50
2023-11-23T10:18:08.654Z,26.50
2023-11-23T10:20:40.000Z,28.90
2023-11-23T10:23:09.137Z,24.20
2023-11-23T10:25:37.558Z,26.10
2023-11-23T10:28:06.352Z,25.70
2023-11-23T10:30:40.645Z,26.60
2023-11-23T10:33:13.112Z,27.20
2023-11-23T10:35:51.849Z,25.30
2023-11-23T10:38:35.477Z,29.60
2023-11-23T10:41:11.457Z,24.40
2023-11-23T10:43:43.386Z,27.00
2023-11-23T10:46:12.905Z,29.60
2023-11-23T10:48:45.873Z,27.20
2023-11-23T10:51:16.848Z,28.50
2023-11-23T10:53:45.346Z,30.40
2023-11-23T10:56:20.892Z,29.80
2023-11-23T10:58:52.184Z,27.10
2023-11-23T11:01:23.433Z,28.50
2023-11-23T11:03:52.014Z,27.60
2023-11-23T11:06:22.961Z,28.30
2023-11-23T11:08:51.479Z,29.60
2023-11-23T11:11:25.006Z,24.30
2023-11-23T11:14:03.682Z,29.50
2023-11-23T11:16:36.718Z,29.90
2023-11-23T11:19:09.211Z,27.70
2023-11-23T11:21:50.673Z,28.20
2023-11-23T11:24:20.574Z,25.40
2023-11-23T11:26:49.715Z,25.90
2023-11-23T11:29:18.690Z,25.00
2023-11-23T11:31:50.724Z,25.80
2023-11-23T11:34:23.609Z,29.30
2023-11-23T11:37:10.636Z,26.00
2023-11-23T11:39:40.924Z,25.00
2023-11-23T11:42:12.071Z,24.10
2023-11-23T11:44:44.734Z,28.50
2023-11-23T11:47:16.223Z,24.00
2023-11-23T11:49:44.453Z,25.80
2023-11-23T11:52:13.771Z,23.00
2023-11-23T11:54:42.443Z,24.20
2023-11-23T11:57:10.775Z,24.70
2023-11-23T11:59:39.923Z,24.30
2023-11-23T12:02:09.083Z,23.70
2023-11-23T12:04:39.890Z,24.70
2023-11-23T12:07:17.852Z,23.80
2023-11-23T12:09:55.643Z,26.60
2023-11-23T12:12:24.148Z,25.20
2023-11-23T12:14:52.826Z,22.70
2023-11-23T12:17:21.195Z,26.80
2023-11-23T12:19:53.818Z,25.90
2023-11-23T12:22:24.542Z,24.20
2023-11-23T12:24:54.000Z,24.30
2023-11-23T12:27:22.862Z,25.40
2023-11-23T12:29:51.460Z,26.70
2023-11-23T12:32:19.844Z,25.80
2023-11-23T12:34:48.227Z,26.20
2023-11-23T12:37:17.230Z,23.80
2023-11-23T12:39:51.942Z,24.10
2023-11-23T12:42:20.338Z,23.30
2023-11-23T12:44:51.602Z,23.30
2023-11-23T12:47:22.508Z,25.10
2023-11-23T12:49:51.009Z,24.50
2023-11-23T12:52:19.992Z,22.00
2023-11-23T12:54:49.483Z,24.80
2023-11-23T12:57:18.067Z,23.90
2023-11-23T12:59:46.668Z,23.20
2023-11-23T13:02:15.029Z,22.60
2023-11-23T13:04:43.574Z,21.30
2023-11-23T13:07:11.991Z,23.50
2023-11-23T13:09:40.293Z,22.60
2023-11-23T13:12:10.686Z,24.50
2023-11-23T13:14:40.633Z,23.40
2023-11-23T13:17:09.809Z,25.60
2023-11-23T13:19:43.466Z,21.50
2023-11-23T13:22:13.854Z,24.00
2023-11-23T13:24:43.026Z,24.90
2023-11-23T13:27:13.597Z,21.70
2023-11-23T13:29:42.497Z,18.60
2023-11-23T13:32:11.972Z,23.50
2023-11-23T13:34:40.512Z,24.30
2023-11-23T13:37:10.425Z,25.60
2023-11-23T13:39:39.804Z,27.30
2023-11-23T13:42:08.747Z,26.30
2023-11-23T13:44:37.200Z,24.50
2023-11-23T13:47:06.043Z,23.50
2023-11-23T13:49:34.416Z,23.40
2023-11-23T13:52:04.349Z,22.50
2023-11-23T13:54:33.011Z,24.80
2023-11-23T13:57:01.805Z,22.50
2023-11-23T13:59:30.375Z,23.90
2023-11-23T14:02:00.117Z,22.90
2023-11-23T14:04:29.014Z,22.40
2023-11-23T14:06:58.704Z,22.60
2023-11-23T14:09:29.937Z,29.40
2023-11-23T14:11:58.675Z,24.40
2023-11-23T14:14:29.459Z,25.20
2023-11-23T14:16:57.873Z,26.10
2023-11-23T14:19:26.556Z,24.20
2023-11-23T14:21:56.990Z,25.90
2023-11-23T14:24:25.489Z,24.60
2023-11-23T14:26:54.650Z,27.50
2023-11-23T14:29:25.410Z,29.80
2023-11-23T14:31:55.349Z,24.70
2023-11-23T14:34:25.385Z,30.50
2023-11-23T14:36:56.913Z,26.30
2023-11-23T14:39:29.098Z,25.10
2023-11-23T14:41:58.477Z,25.50
2023-11-23T14:44:26.924Z,25.60
2023-11-23T14:46:55.392Z,24.70
2023-11-23T14:49:24.311Z,31.20
2023-11-23T14:51:54.498Z,26.80
2023-11-23T14:54:31.990Z,28.30
2023-11-23T14:57:08.782Z,29.10
2023-11-23T14:59:37.920Z,29.30
2023-11-23T15:02:08.257Z,25.20
2023-11-23T15:04:37.210Z,27.80
2023-11-23T15:07:05.707Z,28.10
2023-11-23T15:09:34.262Z,30.00
2023-11-23T15:12:04.110Z,31.50
2023-11-23T15:14:32.779Z,27.80
2023-11-23T15:17:02.009Z,28.50
2023-11-23T15:19:35.812Z,27.20
2023-11-23T15:22:08.613Z,30.10
2023-11-23T15:24:37.456Z,29.70
2023-11-23T15:27:08.707Z,31.30
2023-11-23T15:29:37.488Z,29.70
2023-11-23T15:32:07.537Z,29.60
2023-11-23T15:34:36.006Z,30.80
2023-11-23T15:37:04.901Z,30.10
2023-11-23T15:39:34.179Z,30.90
2023-11-23T15:42:02.825Z,30.50
2023-11-23T15:44:31.349Z,36.60
2023-11-23T15:46:59.843Z,33.20
2023-11-23T15:49:28.231Z,29.30
2023-11-23T15:51:56.523Z,32.20
2023-11-23T15:54:27.634Z,29.90
2023-11-23T15:56:56.147Z,30.10
2023-11-23T15:59:25.881Z,31.50
2023-11-23T16:01:54.953Z,29.30
2023-11-23T16:04:23.582Z,29.10
2023-11-23T16:06:52.352Z,31.20
2023-11-23T16:09:23.584Z,35.80
2023-11-23T16:11:51.977Z,33.80
2023-11-23T16:14:20.720Z,32.70
2023-11-23T16:16:49.468Z,34.20
2023-11-23T16:19:17.801Z,38.60
2023-11-23T16:21:46.214Z,38.70
2023-11-23T16:24:15.459Z,33.30
2023-11-23T16:26:46.390Z,39.20
2023-11-23T16:29:16.552Z,36.40
2023-11-23T16:31:46.448Z,31.80
2023-11-23T16:34:16.991Z,38.00
2023-11-23T16:36:47.092Z,32.70
2023-11-23T16:39:18.686Z,35.20
2023-11-23T16:41:47.581Z,38.20
2023-11-23T16:44:17.381Z,39.90
2023-11-23T16:46:46.802Z,33.40
2023-11-23T16:49:15.454Z,40.00
2023-11-23T16:51:44.011Z,34.50
2023-11-23T16:54:12.632Z,45.20
2023-11-23T16:56:40.932Z,35.90
2023-11-23T16:59:11.731Z,32.50
2023-11-23T17:01:41.451Z,38.60
2023-11-23T17:04:10.140Z,34.50
2023-11-23T17:06:40.865Z,36.70
2023-11-23T17:09:11.558Z,36.50
2023-11-23T17:11:40.566Z,32.70
2023-11-23T17:14:12.444Z,34.90
2023-11-23T17:16:42.001Z,28.10
2023-11-23T17:19:14.031Z,31.00
2023-11-23T17:21:46.781Z,28.30
2023-11-23T17:24:16.245Z,31.00
2023-11-23T17:26:45.181Z,31.30
2023-11-23T17:29:13.677Z,37.20
2023-11-23T17:31:43.297Z,36.20
2023-11-23T17:34:13.408Z,28.00
2023-11-23T17:36:42.054Z,36.00
2023-11-23T17:39:17.210Z,35.20
2023-11-23T17:41:49.327Z,26.50
2023-11-23T17:46:46.061Z,30.00
2023-11-23T17:49:17.496Z,28.00
2023-11-23T17:51:46.661Z,24.30
2023-11-23T17:54:16.287Z,28.90
2023-11-23T17:56:44.809Z,23.90
2023-11-23T17:59:25.794Z,27.10
2023-11-23T18:02:05.393Z,25.20
2023-11-23T18:04:33.958Z,32.20
2023-11-23T18:07:02.787Z,25.40
2023-11-23T18:09:33.352Z,28.60
2023-11-23T18:12:04.258Z,26.80
2023-11-23T18:14:32.718Z,31.50
2023-11-23T18:17:01.085Z,29.70
2023-11-23T18:19:29.487Z,32.30
2023-11-23T18:21:58.387Z,31.00
2023-11-23T18:24:26.768Z,29.90
2023-11-23T18:26:55.113Z,28.90
2023-11-23T18:29:24.233Z,28.80
2023-11-23T18:31:53.666Z,31.70
2023-11-23T18:34:22.220Z,27.90
2023-11-23T18:36:53.517Z,30.80
2023-11-23T18:39:24.466Z,31.20
2023-11-23T18:41:53.601Z,28.00
2023-11-23T18:44:22.093Z,30.30
2023-11-23T18:46:50.459Z,31.10
2023-11-23T18:49:20.518Z,32.50
2023-11-23T18:51:48.921Z,29.30
2023-11-23T18:54:17.363Z,29.10
2023-11-23T18:56:45.758Z,30.40
2023-11-23T18:59:14.202Z,34.10
2023-11-23T19:01:42.749Z,37.20
2023-11-23T19:04:11.409Z,29.60
2023-11-23T19:06:40.639Z,31.40
2023-11-23T19:09:14.053Z,33.20
2023-11-23T19:11:43.084Z,33.20
2023-11-23T19:14:11.446Z,29.60
2023-11-23T19:16:40.762Z,33.50
2023-11-23T19:19:11.503Z,35.00
2023-11-23T19:21:40.248Z,34.80
2023-11-23T19:24:09.375Z,36.00
2023-11-23T19:26:38.151Z,33.90
2023-11-23T19:29:07.687Z,34.70
2023-11-23T19:31:36.462Z,32.60
2023-11-23T19:34:05.417Z,32.40
2023-11-23T19:36:35.311Z,36.60
2023-11-23T19:39:04.472Z,38.10
2023-11-23T19:41:35.699Z,35.50
2023-11-23T19:44:04.793Z,35.60
2023-11-23T19:46:36.147Z,34.90
2023-11-23T19:49:07.820Z,36.60
2023-11-23T19:51:41.551Z,35.60
2023-11-23T19:54:13.898Z,37.20
2023-11-23T19:56:42.464Z,41.50
2023-11-23T19:59:10.756Z,37.30
2023-11-23T20:01:39.121Z,33.10
2023-11-23T20:04:07.708Z,43.00
2023-11-23T20:06:36.232Z,37.60
2023-11-23T20:09:10.125Z,35.10
2023-11-23T20:11:38.658Z,39.10
2023-11-23T20:14:08.009Z,41.70
2023-11-23T20:16:36.521Z,34.90
2023-11-23T20:19:05.173Z,38.70
2023-11-23T20:21:34.649Z,42.60
2023-11-23T20:24:03.241Z,36.00
2023-11-23T20:26:31.666Z,35.00
2023-11-23T20:29:00.001Z,45.10
2023-11-23T20:31:29.624Z,36.00
2023-11-23T20:33:58.270Z,38.00
2023-11-23T20:36:26.551Z,39.20
2023-11-23T20:38:55.363Z,42.30
2023-11-23T20:41:23.782Z,42.40
2023-11-23T20:43:52.215Z,40.10
2023-11-23T20:46:22.385Z,35.90
2023-11-23T20:48:51.546Z,39.30
2023-11-23T20:51:20.369Z,38.60
2023-11-23T20:53:51.881Z,39.50
2023-11-23T20:56:26.027Z,37.50
2023-11-23T20:58:57.817Z,33.60
2023-11-23T21:03:56.160Z,29.90
2023-11-23T21:06:26.520Z,43.20
2023-11-23T21:08:56.502Z,35.60
2023-11-23T21:11:25.125Z,36.50
2023-11-23T21:13:53.350Z,36.00
2023-11-23T21:16:21.839Z,41.70
2023-11-23T21:18:50.346Z,34.30
2023-11-23T21:21:18.961Z,35.30
2023-11-23T21:23:48.004Z,34.90
2023-11-23T21:26:16.589Z,28.80
2023-11-23T21:28:45.160Z,30.40
2023-11-23T21:31:13.656Z,35.60
2023-11-23T21:33:43.571Z,40.30
2023-11-23T21:36:12.050Z,30.40
2023-11-23T21:38:40.428Z,33.40
2023-11-23T21:41:09.522Z,30.00
2023-11-23T21:43:37.896Z,34.20
2023-11-23T21:46:06.317Z,27.20
2023-11-23T21:48:34.911Z,32.00
2023-11-23T21:51:03.462Z,32.30
2023-11-23T21:53:33.782Z,32.30
2023-11-23T21:56:02.058Z,30.40
2023-11-23T21:58:30.939Z,33.10
2023-11-23T22:00:59.413Z,33.20
2023-11-23T22:03:28.949Z,28.80
2023-11-23T22:05:57.362Z,28.30
2023-11-23T22:08:26.105Z,28.80
2023-11-23T22:10:54.594Z,24.90
2023-11-23T22:13:23.063Z,25.90
2023-11-23T22:15:51.711Z,26.20
2023-11-23T22:18:20.685Z,30.10
2023-11-23T22:20:50.141Z,33.20
2023-11-23T22:23:18.967Z,30.80
2023-11-23T22:25:48.230Z,30.40
2023-11-23T22:28:17.021Z,24.10
2023-11-23T22:30:45.827Z,24.40
2023-11-23T22:33:14.521Z,24.20
2023-11-23T22:35:43.494Z,25.00
2023-11-23T22:38:15.913Z,24.70
2023-11-23T22:40:45.198Z,29.80
2023-11-23T22:43:14.058Z,29.30
2023-11-23T22:45:42.886Z,24.70
2023-11-23T22:48:11.341Z,28.30
2023-11-23T22:50:40.345Z,29.20
2023-11-23T22:53:08.821Z,28.20
2023-11-23T22:55:37.195Z,24.80
2023-11-23T22:58:05.584Z,25.00
2023-11-23T23:00:38.041Z,24.50
2023-11-23T23:03:06.860Z,26.00
2023-11-23T23:05:36.135Z,21.60
2023-11-23T23:08:04.850Z,24.70
2023-11-23T23:10:34.388Z,20.50
2023-11-23T23:13:05.871Z,24.30
2023-11-23T23:15:34.541Z,21.50
2023-11-23T23:18:02.990Z,20.70
2023-11-23T23:20:31.630Z,21.90
2023-11-23T23:23:00.122Z,20.30
2023-11-23T23:25:28.545Z,19.90
2023-11-23T23:27:57.728Z,24.00
2023-11-23T23:30:28.011Z,25.70
2023-11-23T23:32:56.614Z,20.50
2023-11-23T23:35:25.193Z,20.20
2023-11-23T23:37:53.670Z,20.40
2023-11-23T23:40:21.939Z,17.40
2023-11-23T23:42:50.588Z,16.30
2023-11-23T23:45:19.135Z,17.90
2023-11-23T23:47:47.613Z,17.40
2023-11-23T23:50:16.413Z,17.40
2023-11-23T23:52:45.485Z,20.30
2023-11-23T23:55:14.742Z,19.50
2023-11-23T23:57:43.374Z,15.50
